Time;durP1;ratioP1;P1;durP2;ratioP2;P2;SDS_P1;SDS_P2;PMS_P1;PMS_P2;Temp;Humidity;BMP_temperature;BMP_pressure;BME280_temperature;BME280_humidity;BME280_pressure;Samples;Min_cycle;Max_cycle;Signal;HPM_P1;HPM_P2
2021/03/10 00:01:20;;;;;;;93.30;38.85;;;;;;;-2.60;58.63;97380.34;1802980;78;27496;-84
2021/03/10 00:03:47;;;;;;;105.05;40.48;;;;;;;-2.58;58.64;97382.39;1802272;78;25678;-84
2021/03/10 00:06:15;;;;;;;102.07;39.35;;;;;;;-2.59;58.69;97384.67;1797878;78;25771;-83
2021/03/10 00:08:42;;;;;;;114.92;42.85;;;;;;;-2.60;58.71;97383.00;1797765;78;25730;-84
2021/03/10 00:11:09;;;;;;;98.70;41.25;;;;;;;-2.62;58.76;97384.92;1783167;78;25716;-83
2021/03/10 00:13:36;;;;;;;105.60;44.98;;;;;;;-2.65;58.92;97380.38;1812191;78;28523;-84
2021/03/10 00:16:05;;;;;;;114.25;44.88;;;;;;;-2.66;58.90;97380.89;1804553;78;26167;-84
2021/03/10 00:18:32;;;;;;;108.03;43.42;;;;;;;-2.66;59.02;97382.20;1802899;78;25773;-85
2021/03/10 00:20:59;;;;;;;107.12;44.88;;;;;;;-2.66;59.07;97381.38;1803016;78;26475;-84
2021/03/10 00:23:27;;;;;;;101.85;41.68;;;;;;;-2.69;59.38;97378.98;1791325;78;26339;-83
2021/03/10 00:25:54;;;;;;;125.15;53.08;;;;;;;-2.74;59.33;97380.67;1784733;78;27564;-83
2021/03/10 00:28:21;;;;;;;113.60;49.13;;;;;;;-2.81;59.45;97378.21;1803943;77;26199;-84
2021/03/10 00:30:49;;;;;;;122.22;49.77;;;;;;;-2.80;59.59;97374.61;1775587;78;25319;-84
2021/03/10 00:33:16;;;;;;;158.63;58.68;;;;;;;-2.78;59.60;97377.96;1813248;77;26439;-84
2021/03/10 00:35:43;;;;;;;154.27;59.15;;;;;;;-2.79;59.67;97378.92;1787209;78;25862;-85
2021/03/10 00:38:10;;;;;;;160.30;60.52;;;;;;;-2.81;59.77;97379.53;1799961;78;27490;-85
2021/03/10 00:40:38;;;;;;;122.00;51.15;;;;;;;-2.84;59.93;97373.17;1789138;78;26128;-84
2021/03/10 00:43:05;;;;;;;121.05;48.38;;;;;;;-2.83;59.96;97372.22;1794737;78;25721;-84
2021/03/10 00:45:32;;;;;;;107.85;48.75;;;;;;;-2.85;60.06;97378.11;1775550;78;26496;-84
2021/03/10 00:48:00;;;;;;;121.97;50.73;;;;;;;-2.84;60.28;97377.63;1795959;78;25803;-84
2021/03/10 00:50:28;;;;;;;125.97;52.00;;;;;;;-2.81;60.37;97372.92;1804108;78;27584;-84
2021/03/10 00:52:58;;;;;;;134.85;55.35;;;;;;;-2.76;60.44;97373.36;1804193;78;25753;-84
2021/03/10 00:55:25;;;;;;;129.07;52.65;;;;;;;-2.76;60.47;97369.39;1781291;78;25809;-84
2021/03/10 00:57:52;;;;;;;124.87;52.17;;;;;;;-2.81;60.49;97363.69;1779968;78;25893;-85
2021/03/10 01:00:22;;;;;;;125.65;51.63;;;;;;;-2.86;60.54;97361.90;1778860;78;26056;-84
2021/03/10 01:02:49;;;;;;;120.08;50.90;;;;;;;-2.92;60.68;97361.11;1808239;78;28464;-84
2021/03/10 01:05:17;;;;;;;121.55;53.35;;;;;;;-2.95;60.74;97365.32;1808429;78;26117;-84
2021/03/10 01:07:44;;;;;;;120.53;52.60;;;;;;;-2.98;60.73;97360.29;1783617;78;25719;-84
2021/03/10 01:10:13;;;;;;;109.83;46.18;;;;;;;-3.02;60.70;97361.53;1802888;78;26416;-84
2021/03/10 01:12:41;;;;;;;101.47;45.45;;;;;;;-3.03;60.78;97362.49;1797781;78;25651;-84
2021/03/10 01:15:15;;;;;;;101.35;45.20;;;;;;;-3.05;60.77;97361.30;1797615;78;28437;-84
2021/03/10 01:17:43;;;;;;;97.80;43.55;;;;;;;-3.08;60.83;97362.87;1804984;78;25711;-84
2021/03/10 01:20:15;;;;;;;101.67;43.70;;;;;;;-3.08;60.85;97359.39;1803008;79;25329;-84
2021/03/10 01:22:42;;;;;;;80.80;34.90;;;;;;;-3.08;60.92;97365.51;1803140;78;25849;-84
2021/03/10 01:25:11;;;;;;;118.75;47.88;;;;;;;-3.20;60.83;97359.09;1802925;78;25897;-84
2021/03/10 01:27:39;;;;;;;128.20;52.33;;;;;;;-3.30;60.89;97363.81;1802961;78;27489;-84
2021/03/10 01:30:10;;;;;;;132.00;51.05;;;;;;;-3.34;61.04;97359.74;1802912;78;26119;-84
2021/03/10 01:32:38;;;;;;;326.25;126.58;;;;;;;-3.38;61.00;97355.67;1783845;78;25786;-84
2021/03/10 01:35:07;;;;;;;181.60;77.80;;;;;;;-3.37;61.17;97349.91;1800597;78;25791;-83
2021/03/10 01:37:35;;;;;;;102.53;43.45;;;;;;;-3.40;61.17;97347.06;1812898;78;26138;-84
2021/03/10 01:40:10;;;;;;;86.08;37.20;;;;;;;-3.44;61.30;97354.88;1824141;77;27493;-84
2021/03/10 01:42:37;;;;;;;71.67;32.83;;;;;;;-3.52;61.24;97344.12;1812877;78;26218;-84
2021/03/10 01:45:08;;;;;;;77.50;33.85;;;;;;;-3.64;61.13;97343.80;1802878;78;25713;-84
2021/03/10 01:47:36;;;;;;;72.90;33.45;;;;;;;-3.65;61.38;97340.80;1800161;78;26395;-85
2021/03/10 01:50:06;;;;;;;68.78;29.70;;;;;;;-3.66;61.43;97339.13;1822788;78;25756;-84
2021/03/10 01:52:33;;;;;;;65.45;31.55;;;;;;;-3.74;61.42;97342.37;1808629;78;28390;-84
2021/03/10 01:55:00;;;;;;;64.58;29.77;;;;;;;-3.85;61.41;97344.20;1792488;78;25732;-84
2021/03/10 01:57:28;;;;;;;62.33;28.17;;;;;;;-3.93;61.47;97345.30;1802038;78;25806;-84
2021/03/10 01:59:57;;;;;;;64.55;28.87;;;;;;;-3.93;61.48;97356.69;1792459;78;25779;-84
2021/03/10 02:02:24;;;;;;;60.05;27.42;;;;;;;-3.85;61.51;97350.79;1804260;78;26508;-84
2021/03/10 02:04:52;;;;;;;63.38;26.55;;;;;;;-3.80;61.42;97351.27;1799620;78;27499;-83
2021/03/10 02:07:28;;;;;;;62.27;27.45;;;;;;;-3.84;61.35;97354.63;1792354;78;25775;-84
2021/03/10 02:10:53;;;;;;;63.38;28.73;;;;;;;-3.84;61.32;97348.52;1792502;78;25719;-84
2021/03/10 02:13:40;;;;;;;107.83;40.23;;;;;;;-3.84;61.39;97354.63;1792670;78;26487;-84
2021/03/10 02:16:50;;;;;;;88.72;35.85;;;;;;;-3.86;61.46;97357.86;1792663;78;25762;-84
2021/03/10 02:19:51;;;;;;;90.47;39.00;;;;;;;-3.92;61.53;97360.17;1794132;78;27583;-84
2021/03/10 02:22:50;;;;;;;61.83;30.55;;;;;;;-4.00;61.74;97358.16;1806052;78;25798;-83
2021/03/10 02:25:51;;;;;;;56.45;28.00;;;;;;;-4.07;61.57;97351.20;1799134;78;26456;-83
2021/03/10 02:28:19;;;;;;;66.55;29.42;;;;;;;-4.13;61.65;97351.70;1792569;78;26445;-83
2021/03/10 02:30:53;;;;;;;68.87;31.05;;;;;;;-4.15;61.72;97344.88;1813454;78;25694;-83
2021/03/10 02:33:25;;;;;;;70.00;30.45;;;;;;;-4.17;61.81;97356.02;1792658;78;27528;-83
2021/03/10 02:36:00;;;;;;;73.05;32.33;;;;;;;-4.14;62.04;97357.94;1796432;78;25981;-84
2021/03/10 02:38:29;;;;;;;70.62;32.28;;;;;;;-4.13;62.18;97349.06;1790344;78;25675;-84
2021/03/10 02:40:57;;;;;;;69.62;29.92;;;;;;;-4.13;62.21;97353.50;1797819;78;26436;-86
2021/03/10 02:43:26;;;;;;;131.10;48.95;;;;;;;-4.15;62.22;97357.57;1802472;78;25910;-83
2021/03/10 02:45:55;;;;;;;168.80;53.80;;;;;;;-4.12;62.30;97357.81;1786957;78;27470;-83
2021/03/10 02:48:24;;;;;;;137.22;46.13;;;;;;;-4.13;62.34;97360.93;1781300;78;26289;-83
2021/03/10 02:50:54;;;;;;;81.50;33.60;;;;;;;-4.10;62.42;97361.98;1788367;78;25798;-84
2021/03/10 02:53:22;;;;;;;47.80;23.90;;;;;;;-4.08;62.46;97358.75;1802014;78;25744;-83
2021/03/10 02:55:50;;;;;;;52.20;24.63;;;;;;;-4.01;62.18;97366.55;1815113;78;25809;-83
2021/03/10 02:58:18;;;;;;;42.78;21.55;;;;;;;-4.01;62.05;97357.31;1787030;78;27490;-84
2021/03/10 03:00:45;;;;;;;48.63;22.42;;;;;;;-4.02;61.83;97356.95;1804785;78;25743;-83
2021/03/10 03:03:12;;;;;;;43.78;21.48;;;;;;;-4.02;61.85;97353.00;1802982;78;25810;-83
2021/03/10 03:05:40;;;;;;;48.15;24.90;;;;;;;-3.97;61.80;97351.77;1804479;78;25720;-83
2021/03/10 03:08:08;;;;;;;47.65;21.85;;;;;;;-3.95;61.84;97357.29;1802728;78;25779;-86
2021/03/10 03:10:39;;;;;;;45.05;24.07;;;;;;;-3.96;61.83;97355.61;1776469;78;27551;-83
2021/03/10 03:13:15;;;;;;;44.75;21.80;;;;;;;-3.94;61.95;97348.42;1786865;78;25940;-85
2021/03/10 03:15:47;;;;;;;43.58;21.97;;;;;;;-3.97;61.93;97354.41;1792565;78;25734;-84
2021/03/10 03:18:16;;;;;;;40.43;21.00;;;;;;;-4.04;61.84;97348.33;1814414;78;26469;-84
2021/03/10 03:20:43;;;;;;;49.38;23.07;;;;;;;-4.09;61.86;97349.16;1794255;78;25839;-84
2021/03/10 03:23:11;;;;;;;45.52;22.27;;;;;;;-4.08;61.96;97350.84;1775637;78;28506;-85
2021/03/10 03:25:43;;;;;;;40.52;21.10;;;;;;;-4.07;61.86;97348.56;1775521;78;26077;-83
2021/03/10 03:28:14;;;;;;;;;;;;;;;-4.08;61.80;97351.31;1803954;78;25631;-85
2021/03/10 03:30:43;;;;;;;55.15;22.00;;;;;;;-4.20;61.98;97345.22;1807735;78;25600;-84
2021/03/10 03:33:18;;;;;;;45.05;21.65;;;;;;;-4.34;62.04;97354.69;1819042;78;25346;-84
2021/03/10 03:35:49;;;;;;;48.05;21.65;;;;;;;-4.41;62.03;97360.09;1803412;78;27539;-84
2021/03/10 03:38:17;;;;;;;51.83;21.48;;;;;;;-4.52;62.01;97362.73;1796072;78;26479;-84
2021/03/10 03:40:45;;;;;;;45.75;22.60;;;;;;;-4.60;62.19;97361.19;1816568;78;25587;-83
2021/03/10 03:43:12;;;;;;;50.00;23.75;;;;;;;-4.63;62.24;97369.31;1781549;78;25766;-84
2021/03/10 03:45:40;;;;;;;53.92;24.27;;;;;;;-4.71;62.09;97373.36;1807597;78;25763;-85
2021/03/10 03:48:08;;;;;;;52.10;23.60;;;;;;;-4.81;62.14;97375.50;1799476;78;28638;-83
2021/03/10 03:50:36;;;;;;;50.78;23.02;;;;;;;-4.82;62.36;97373.34;1808136;78;26527;-83
2021/03/10 03:53:03;;;;;;;55.40;25.43;;;;;;;-4.87;62.46;97371.56;1825039;78;25792;-84
2021/03/10 03:55:31;;;;;;;46.77;23.27;;;;;;;-4.91;62.55;97372.73;1811123;78;26497;-83
2021/03/10 03:57:58;;;;;;;50.20;25.55;;;;;;;-4.91;62.86;97371.42;1801627;78;25792;-84
2021/03/10 04:00:26;;;;;;;53.95;24.57;;;;;;;-4.89;62.97;97381.36;1792637;78;27544;-84
2021/03/10 04:02:54;;;;;;;62.27;26.27;;;;;;;-4.97;62.81;97373.22;1805545;78;26359;-83
2021/03/10 04:05:21;;;;;;;48.90;22.80;;;;;;;-5.02;62.93;97371.87;1798248;78;25314;-83
2021/03/10 04:07:55;;;;;;;51.92;24.45;;;;;;;-5.06;63.09;97373.89;1798510;78;26743;-83
2021/03/10 04:10:35;;;;;;;52.85;25.27;;;;;;;-5.09;63.26;97371.52;1814699;78;25864;-84
2021/03/10 04:13:04;;;;;;;52.10;24.77;;;;;;;-5.10;63.38;97372.47;1793598;78;28470;-83
2021/03/10 04:15:33;;;;;;;53.70;25.88;;;;;;;-5.04;63.44;97373.78;1799685;78;25673;-83
2021/03/10 04:18:01;;;;;;;54.75;28.15;;;;;;;-5.07;63.42;97377.48;1794413;78;25695;-84
2021/03/10 04:20:29;;;;;;;69.82;30.40;;;;;;;-5.11;63.56;97375.57;1792569;78;26467;-84
2021/03/10 04:22:56;;;;;;;63.48;30.65;;;;;;;-5.09;63.68;97374.14;1802157;78;25402;-84
2021/03/10 04:25:24;;;;;;;74.05;33.38;;;;;;;-5.04;63.70;97379.88;1797996;78;27485;-83
2021/03/10 04:27:51;;;;;;;78.22;35.80;;;;;;;-5.04;63.73;97377.25;1806156;78;25971;-85
2021/03/10 04:30:20;;;;;;;74.10;33.70;;;;;;;-5.04;63.68;97377.25;1825002;77;25806;-83
2021/03/10 04:32:47;;;;;;;79.75;36.35;;;;;;;-5.02;63.77;97378.45;1804185;78;25747;-83
2021/03/10 04:35:16;;;;;;;73.45;33.63;;;;;;;-5.01;63.73;97373.55;1794872;78;25748;-84
2021/03/10 04:37:43;;;;;;;70.05;34.23;;;;;;;-5.04;63.71;97377.25;1787149;78;27555;-84
2021/03/10 04:40:12;;;;;;;78.33;34.38;;;;;;;-5.00;63.67;97380.02;1783278;78;25787;-84
2021/03/10 04:42:41;;;;;;;82.78;36.38;;;;;;;-4.98;63.75;97381.23;1797500;78;25756;-83
2021/03/10 04:45:12;;;;;;;83.10;33.67;;;;;;;-4.96;63.63;97380.16;1803678;78;25735;-84
2021/03/10 04:47:42;;;;;;;84.00;35.15;;;;;;;-4.98;63.63;97379.91;1792424;78;25825;-84
2021/03/10 04:50:11;;;;;;;78.10;31.48;;;;;;;-4.97;63.52;97381.12;1784149;78;27340;-84
2021/03/10 04:52:38;;;;;;;73.05;31.80;;;;;;;-5.02;63.51;97372.72;1775529;78;25762;-84
2021/03/10 04:55:09;;;;;;;66.15;29.77;;;;;;;-5.10;63.47;97375.09;1780946;78;25782;-84
2021/03/10 04:57:38;;;;;;;65.12;27.17;;;;;;;-5.17;63.65;97369.91;1788548;78;26772;-83
2021/03/10 05:00:09;;;;;;;57.73;27.82;;;;;;;-5.16;63.72;97372.91;1799066;78;25636;-87
2021/03/10 05:02:37;;;;;;;42.15;21.12;;;;;;;-5.12;63.70;97377.00;1803296;78;28524;-83
2021/03/10 05:05:07;;;;;;;65.12;28.90;;;;;;;-5.11;63.59;97382.62;1802823;78;25875;-84
2021/03/10 05:07:34;;;;;;;68.10;30.92;;;;;;;-5.18;63.61;97378.28;1809913;78;25723;-84
2021/03/10 05:10:02;;;;;;;74.97;32.53;;;;;;;-5.19;63.67;97376.61;1818213;77;25812;-87
2021/03/10 05:12:30;;;;;;;108.25;42.33;;;;;;;-5.27;63.71;97375.51;1802968;78;25739;-83
2021/03/10 05:14:58;;;;;;;114.25;46.37;;;;;;;-5.32;63.81;97376.34;1784451;78;27563;-83
2021/03/10 05:17:27;;;;;;;105.60;41.98;;;;;;;-5.25;63.84;97378.87;1794811;78;25823;-84
2021/03/10 05:19:57;;;;;;;117.72;45.58;;;;;;;-5.20;63.79;97385.95;1792286;78;25782;-83
2021/03/10 05:22:27;;;;;;;118.02;47.43;;;;;;;-5.25;63.78;97392.02;1802952;78;25655;-83
2021/03/10 05:24:55;;;;;;;108.57;42.35;;;;;;;-5.27;63.76;97384.72;1787490;78;26192;-83
2021/03/10 05:27:24;;;;;;;89.42;40.25;;;;;;;-5.33;63.82;97381.24;1794903;78;27545;-83
2021/03/10 05:29:52;;;;;;;73.50;33.83;;;;;;;-5.39;63.88;97384.31;1789408;78;26161;-82
2021/03/10 05:32:19;;;;;;;70.40;32.38;;;;;;;-5.40;63.91;97391.84;1802989;78;26250;-82
2021/03/10 05:34:47;;;;;;;80.65;36.03;;;;;;;-5.37;63.97;97390.30;1791146;78;26369;-87
2021/03/10 05:37:14;;;;;;;71.65;33.05;;;;;;;-5.33;63.98;97398.34;1779861;78;25693;-83
2021/03/10 05:39:41;;;;;;;76.00;36.28;;;;;;;-5.34;64.05;97394.87;1813871;78;27492;-84
2021/03/10 05:42:09;;;;;;;75.00;35.08;;;;;;;-5.34;63.98;97398.82;1792704;78;26232;-84
2021/03/10 05:44:37;;;;;;;73.57;36.55;;;;;;;-5.37;64.04;97395.56;1815685;78;25637;-83
2021/03/10 05:47:07;;;;;;;68.37;35.40;;;;;;;-5.38;63.96;97400.47;1792938;78;25711;-83
2021/03/10 05:49:34;;;;;;;85.40;38.20;;;;;;;-5.38;64.12;97399.14;1793024;78;26847;-85
2021/03/10 05:52:06;;;;;;;83.55;43.30;;;;;;;-5.43;64.17;97401.30;1815820;77;27492;-83
2021/03/10 05:54:36;;;;;;;;;;;;;;;-5.48;64.17;97402.47;1795646;78;26166;-83
2021/03/10 05:57:06;;;;;;;85.25;39.48;;;;;;;-5.46;64.22;97401.87;1766218;78;25869;-83
2021/03/10 05:59:33;;;;;;;94.77;44.00;;;;;;;-5.47;64.29;97398.88;1806194;78;25792;-83
2021/03/10 06:02:00;;;;;;;91.55;44.15;;;;;;;-5.36;64.49;97402.51;1802192;78;25707;-84
2021/03/10 06:04:43;;;;;;;88.67;45.58;;;;;;;-5.26;64.43;97403.03;1793034;78;28471;-84
2021/03/10 06:07:23;;;;;;;102.32;49.53;;;;;;;-5.19;64.41;97410.01;1793035;78;25656;-84
2021/03/10 06:10:03;;;;;;;114.15;53.95;;;;;;;-5.23;64.34;97396.23;1792917;78;25757;-87
2021/03/10 06:12:45;;;;;;;110.95;48.20;;;;;;;-5.08;64.25;97415.31;1797513;78;25759;-84
2021/03/10 06:15:14;;;;;;;97.57;44.95;;;;;;;-5.04;64.18;97412.79;1811267;78;25697;-89
2021/03/10 06:17:50;;;;;;;95.07;41.73;;;;;;;-4.99;64.18;97422.51;1801186;78;27563;-84
2021/03/10 06:20:30;;;;;;;98.33;42.33;;;;;;;-4.98;64.15;97421.56;1792847;78;25800;-83
2021/03/10 06:22:59;;;;;;;92.72;40.48;;;;;;;-4.95;64.12;97427.88;1792997;78;25751;-83
2021/03/10 06:25:38;;;;;;;93.85;39.98;;;;;;;-4.95;64.14;97433.15;1793003;78;25782;-83
2021/03/10 06:28:05;;;;;;;84.87;37.78;;;;;;;-4.89;64.04;97433.18;1792897;78;26553;-84
2021/03/10 06:30:43;;;;;;;99.03;37.75;;;;;;;-4.89;64.01;97436.66;1792791;78;27544;-84
2021/03/10 06:33:22;;;;;;;77.20;34.53;;;;;;;-4.92;64.04;97447.41;1792934;78;25728;-83
2021/03/10 06:35:50;;;;;;;76.72;33.25;;;;;;;-4.81;64.32;97443.48;1815973;78;25769;-84
2021/03/10 06:38:19;;;;;;;68.50;33.23;;;;;;;-4.77;64.31;97450.22;1792876;78;27160;-82
2021/03/10 06:40:55;;;;;;;75.12;34.70;;;;;;;-4.73;64.33;97446.41;1800302;78;25849;-82
2021/03/10 06:43:42;;;;;;;65.75;29.02;;;;;;;-4.63;64.26;97450.97;1825447;78;28498;-82
2021/03/10 06:46:16;;;;;;;74.35;32.25;;;;;;;-4.65;64.18;97450.24;1792850;78;25901;-84
2021/03/10 06:49:01;;;;;;;155.52;50.48;;;;;;;-4.59;64.25;97451.11;1792856;78;25760;-83
2021/03/10 06:51:31;;;;;;;103.42;38.78;;;;;;;-4.49;64.16;97450.77;1793055;78;25804;-84
2021/03/10 06:53:59;;;;;;;87.47;34.78;;;;;;;-4.41;64.09;97450.53;1793055;78;26279;-84
2021/03/10 06:56:30;;;;;;;74.12;34.55;;;;;;;-4.29;63.88;97451.38;1797236;78;28378;-83
2021/03/10 06:59:07;;;;;;;79.27;33.45;;;;;;;-4.19;63.94;97447.55;1792824;78;25687;-83
2021/03/10 07:01:43;;;;;;;77.90;35.85;;;;;;;-4.09;63.85;97448.02;1793261;78;25738;-83
2021/03/10 07:04:13;;;;;;;87.67;36.28;;;;;;;-4.00;63.64;97450.45;1793304;78;25751;-82
2021/03/10 07:06:41;;;;;;;86.72;36.20;;;;;;;-4.03;63.53;97447.56;1793235;78;25813;-83
2021/03/10 07:09:13;;;;;;;89.28;33.80;;;;;;;-3.95;63.54;97451.38;1814594;78;27489;-83
2021/03/10 07:11:42;;;;;;;80.42;35.92;;;;;;;-3.91;63.55;97450.19;1793275;78;26123;-84
2021/03/10 07:14:14;;;;;;;75.83;33.55;;;;;;;-3.91;63.39;97450.19;1793063;78;25762;-83
2021/03/10 07:16:41;;;;;;;58.65;26.35;;;;;;;-3.84;63.54;97449.58;1793276;78;26531;-82
2021/03/10 07:19:10;;;;;;;45.90;23.12;;;;;;;-3.76;63.22;97455.58;1793481;78;25779;-83
2021/03/10 07:22:01;;;;;;;55.78;26.37;;;;;;;-3.63;62.99;97453.65;1793211;78;27490;-83
2021/03/10 07:25:07;;;;;;;52.10;22.73;;;;;;;-3.46;62.77;97451.80;1820878;78;25844;-83
2021/03/10 07:28:05;;;;;;;49.13;24.30;;;;;;;-3.29;62.63;97453.09;1792883;78;25915;-83
2021/03/10 07:30:47;;;;;;;61.92;27.22;;;;;;;-3.05;62.68;97450.25;1792986;78;25787;-82
2021/03/10 07:33:21;;;;;;;50.35;24.23;;;;;;;-2.79;62.40;97457.34;1793663;78;26101;-83
2021/03/10 07:35:58;;;;;;;49.40;23.65;;;;;;;-2.54;62.05;97449.05;1813135;78;28638;-83
2021/03/10 07:38:39;;;;;;;35.65;18.92;;;;;;;-2.36;61.62;97452.77;1789771;78;25733;-83
2021/03/10 07:41:16;;;;;;;39.98;19.48;;;;;;;-2.19;61.22;97448.70;1793695;78;25790;-82
2021/03/10 07:43:50;;;;;;;35.52;18.60;;;;;;;-1.98;60.96;97448.64;1803429;78;25723;-82
2021/03/10 07:46:26;;;;;;;33.80;17.82;;;;;;;-1.79;60.55;97441.26;1782568;78;25735;-82
2021/03/10 07:48:55;;;;;;;37.70;17.35;;;;;;;-1.61;60.36;97445.80;1799688;78;27919;-82
2021/03/10 07:51:33;;;;;;;35.33;18.20;;;;;;;-1.37;59.97;97448.09;1803061;78;26491;-82
2021/03/10 07:54:25;;;;;;;35.25;18.70;;;;;;;-1.13;59.52;97447.22;1803003;78;26034;-81
2021/03/10 07:57:18;;;;;;;28.47;16.23;;;;;;;-0.95;58.95;97449.16;1803258;78;26477;-80
2021/03/10 08:00:00;;;;;;;34.88;19.40;;;;;;;-0.96;58.16;97451.47;1781134;78;26296;-81
2021/03/10 08:02:31;;;;;;;;;;;;;;;-0.75;58.59;97443.75;1779351;78;27672;-81
2021/03/10 08:05:02;;;;;;;46.02;22.75;;;;;;;-0.43;57.63;97454.53;1779543;78;26124;-82
2021/03/10 08:07:32;;;;;;;45.23;23.42;;;;;;;-0.22;57.92;97453.02;1784950;78;25650;-81
2021/03/10 08:10:00;;;;;;;62.38;27.07;;;;;;;0.24;57.64;97443.71;1797959;78;26646;-82
2021/03/10 08:12:41;;;;;;;54.75;28.20;;;;;;;0.45;56.41;97433.37;1809199;78;25806;-84
2021/03/10 08:15:23;;;;;;;57.03;28.62;;;;;;;0.63;56.79;97442.20;1790175;78;27486;-83
2021/03/10 08:18:02;;;;;;;53.65;26.75;;;;;;;0.94;55.93;97438.73;1811597;78;25782;-82
2021/03/10 08:20:35;;;;;;;56.48;28.35;;;;;;;1.03;55.43;97436.00;1786676;78;25722;-82
2021/03/10 08:23:07;;;;;;;54.77;26.55;;;;;;;1.36;55.99;97438.95;1780805;78;25758;-81
2021/03/10 08:25:36;;;;;;;43.73;21.90;;;;;;;1.77;55.62;97440.12;1775905;78;30623;-82
2021/03/10 08:28:14;;;;;;;40.03;22.00;;;;;;;2.28;55.16;97439.28;1775600;78;27741;-82
2021/03/10 08:30:43;;;;;;;49.73;23.83;;;;;;;2.63;54.37;97434.77;1783113;78;25760;-81
2021/03/10 08:33:12;;;;;;;36.23;19.67;;;;;;;2.82;52.99;97443.31;1799916;78;25673;-82
2021/03/10 08:35:51;;;;;;;34.40;20.25;;;;;;;2.92;53.03;97435.66;1799233;78;26625;-82
2021/03/10 08:38:19;;;;;;;40.00;19.90;;;;;;;3.03;53.04;97442.86;1794721;78;25782;-81
2021/03/10 08:40:47;;;;;;;38.10;20.10;;;;;;;3.32;53.11;97442.92;1793457;78;27357;-82
2021/03/10 08:43:20;;;;;;;35.78;18.98;;;;;;;3.61;52.50;97436.61;1802810;78;26067;-82
2021/03/10 08:45:48;;;;;;;31.97;18.20;;;;;;;3.90;51.82;97436.91;1792557;78;26148;-81
2021/03/10 08:48:16;;;;;;;38.48;18.87;;;;;;;3.91;51.07;97434.57;1775580;78;25863;-81
2021/03/10 08:50:47;;;;;;;22.55;10.85;;;;;;;3.97;50.76;97433.91;1778628;78;26328;-83
2021/03/10 08:53:16;;;;;;;14.50;8.28;;;;;;;4.17;50.54;97430.86;1796715;78;28372;-82
2021/03/10 08:55:44;;;;;;;15.80;9.18;;;;;;;4.30;49.58;97433.33;1813985;78;25351;-81
2021/03/10 08:58:18;;;;;;;15.40;8.50;;;;;;;4.42;48.82;97430.29;1794144;78;25783;-82
2021/03/10 09:00:46;;;;;;;15.75;8.03;;;;;;;4.52;48.26;97428.24;1793093;78;26769;-82
2021/03/10 09:03:18;;;;;;;19.32;6.75;;;;;;;4.64;48.31;97428.19;1818416;78;25891;-81
2021/03/10 09:05:49;;;;;;;13.45;6.83;;;;;;;4.71;47.53;97435.34;1818676;78;26811;-81
2021/03/10 09:08:24;;;;;;;10.63;6.90;;;;;;;4.98;47.35;97430.03;1818498;78;25778;-82
2021/03/10 09:10:54;;;;;;;16.42;9.70;;;;;;;5.23;46.99;97428.04;1795834;78;25873;-82
2021/03/10 09:13:25;;;;;;;13.25;7.30;;;;;;;5.47;46.67;97418.17;1818700;78;25753;-83
2021/03/10 09:15:53;;;;;;;11.10;6.53;;;;;;;5.73;46.43;97422.65;1818329;78;25746;-82
2021/03/10 09:18:20;;;;;;;11.03;6.47;;;;;;;5.96;45.29;97423.98;1818580;78;27498;-83
2021/03/10 09:20:49;;;;;;;36.20;13.22;;;;;;;5.95;44.74;97417.79;1817248;77;25809;-82
2021/03/10 09:23:27;;;;;;;11.50;6.85;;;;;;;6.20;44.84;97423.73;1798508;78;25725;-83
2021/03/10 09:25:56;;;;;;;10.13;5.62;;;;;;;6.44;44.38;97421.30;1818569;78;26327;-82
2021/03/10 09:28:28;;;;;;;13.98;7.37;;;;;;;6.65;43.73;97421.38;1806673;78;25753;-83
2021/03/10 09:30:58;;;;;;;9.15;5.67;;;;;;;6.79;43.11;97419.20;1745009;78;47079;-83
2021/03/10 09:33:28;;;;;;;12.53;6.62;;;;;;;7.02;42.84;97422.25;1818630;78;25690;-83
2021/03/10 09:36:01;;;;;;;10.48;5.22;;;;;;;7.28;43.23;97424.41;1789510;78;25761;-83
2021/03/10 09:38:31;;;;;;;10.32;5.55;;;;;;;7.46;41.67;97426.16;1807943;78;26413;-83
2021/03/10 09:41:01;;;;;;;12.37;8.90;;;;;;;7.42;41.46;97422.19;1818861;78;25950;-82
2021/03/10 09:43:32;;;;;;;9.53;6.05;;;;;;;7.40;41.42;97422.38;1795893;78;27476;-83
2021/03/10 09:46:03;;;;;;;9.23;6.30;;;;;;;7.58;40.56;97421.95;1800352;78;26119;-84
2021/03/10 09:48:39;;;;;;;11.30;6.58;;;;;;;7.49;40.36;97429.78;1805993;78;25774;-83
2021/03/10 09:51:10;;;;;;;12.63;6.35;;;;;;;7.51;39.77;97433.12;1781109;78;25904;-83
2021/03/10 09:53:42;;;;;;;9.03;6.58;;;;;;;7.51;39.53;97423.20;1809610;78;25776;-82
2021/03/10 09:56:14;;;;;;;10.72;6.85;;;;;;;7.71;39.86;97421.23;1808612;78;28436;-84
2021/03/10 09:58:58;;;;;;;19.50;11.18;;;;;;;7.93;39.17;97430.94;1819082;78;25834;-84
2021/03/10 10:01:29;;;;;;;13.72;7.35;;;;;;;7.97;38.90;97419.30;1791117;78;25766;-83
2021/03/10 10:03:58;;;;;;;11.85;7.33;;;;;;;8.13;39.32;97414.95;1777185;78;25891;-83
2021/03/10 10:06:26;;;;;;;24.75;11.63;;;;;;;8.33;39.46;97420.52;1802914;78;25759;-84
2021/03/10 10:08:53;;;;;;;11.88;7.62;;;;;;;8.38;38.50;97415.37;1791406;78;27690;-83
2021/03/10 10:11:22;;;;;;;9.73;6.85;;;;;;;8.42;38.61;97422.86;1788930;78;25796;-85
2021/03/10 10:13:51;;;;;;;12.28;7.92;;;;;;;8.56;38.83;97406.28;1791480;78;26119;-83
2021/03/10 10:16:18;;;;;;;11.48;7.30;;;;;;;8.66;38.44;97414.82;1794201;78;25870;-83
2021/03/10 10:18:47;;;;;;;17.73;8.90;;;;;;;8.81;37.66;97410.66;1808831;78;25687;-82
2021/03/10 10:21:17;;;;;;;16.95;11.80;;;;;;;8.52;37.51;97415.26;1798461;78;28196;-83
2021/03/10 10:23:45;;;;;;;16.05;11.08;;;;;;;8.47;37.65;97417.70;1792459;78;25696;-83
2021/03/10 10:26:12;;;;;;;13.35;9.43;;;;;;;8.60;37.79;97414.25;1777600;78;25697;-84
2021/03/10 10:28:40;;;;;;;15.83;8.95;;;;;;;8.64;37.98;97420.91;1780273;78;26374;-83
2021/03/10 10:31:07;;;;;;;12.13;8.10;;;;;;;8.73;37.38;97419.71;1786570;78;25719;-83
2021/03/10 10:33:34;;;;;;;16.73;8.88;;;;;;;8.88;37.31;97418.23;1804973;78;27474;-83
2021/03/10 10:36:02;;;;;;;17.67;9.93;;;;;;;8.87;36.70;97420.09;1787470;78;26193;-83
2021/03/10 10:38:29;;;;;;;12.25;8.70;;;;;;;8.81;36.68;97422.25;1811696;78;25705;-84
2021/03/10 10:40:57;;;;;;;14.13;8.58;;;;;;;8.95;36.48;97420.43;1803668;78;25950;-83
2021/03/10 10:43:24;;;;;;;14.25;9.18;;;;;;;9.03;36.88;97421.11;1793354;78;25771;-83
2021/03/10 10:45:52;;;;;;;16.87;10.28;;;;;;;9.22;36.61;97418.67;1808816;78;27537;-82
2021/03/10 10:48:19;;;;;;;12.70;8.35;;;;;;;9.35;36.08;97418.71;1784158;78;25802;-83
2021/03/10 10:50:47;;;;;;;18.92;9.20;;;;;;;9.53;35.88;97418.14;1791937;78;25789;-83
2021/03/10 10:53:14;;;;;;;13.35;9.60;;;;;;;9.58;35.39;97412.95;1787204;78;25750;-82
2021/03/10 10:55:41;;;;;;;17.48;10.23;;;;;;;9.37;35.54;97416.13;1815621;78;25766;-83
2021/03/10 10:58:09;;;;;;;13.53;9.58;;;;;;;9.00;35.86;97418.81;1817876;77;28370;-83
2021/03/10 11:00:36;;;;;;;19.80;10.65;;;;;;;8.91;35.26;97428.09;1816557;78;25753;-82
2021/03/10 11:03:05;;;;;;;18.95;9.23;;;;;;;8.86;35.72;97421.64;1804073;78;25547;-84
2021/03/10 11:05:33;;;;;;;17.75;9.63;;;;;;;8.96;35.45;97420.23;1789259;78;25726;-83
2021/03/10 11:08:01;;;;;;;26.70;12.37;;;;;;;9.06;34.75;97423.09;1819038;78;25742;-82
2021/03/10 11:10:28;;;;;;;12.63;8.15;;;;;;;9.23;35.43;97422.52;1796795;77;28427;-84
2021/03/10 11:12:55;;;;;;;14.63;8.95;;;;;;;9.35;33.97;97413.33;1809349;78;25323;-83
2021/03/10 11:15:23;;;;;;;15.05;9.78;;;;;;;9.38;34.66;97410.23;1806417;78;25740;-83
2021/03/10 11:17:50;;;;;;;16.32;9.13;;;;;;;9.41;34.25;97405.80;1817770;78;26405;-82
2021/03/10 11:20:18;;;;;;;17.42;9.23;;;;;;;9.52;34.22;97403.84;1817996;78;25722;-83
2021/03/10 11:22:45;;;;;;;15.78;9.33;;;;;;;9.65;34.19;97401.17;1787859;78;27459;-83
2021/03/10 11:25:13;;;;;;;16.85;9.88;;;;;;;9.75;34.35;97404.28;1818492;77;25804;-83
2021/03/10 11:27:41;;;;;;;14.98;8.55;;;;;;;9.71;34.00;97403.03;1817857;78;26775;-82
2021/03/10 11:30:12;;;;;;;12.37;9.13;;;;;;;9.69;33.66;97397.01;1818187;77;25843;-83
2021/03/10 11:32:39;;;;;;;14.38;8.50;;;;;;;9.53;33.36;97392.03;1805011;78;25735;-82
2021/03/10 11:35:09;;;;;;;19.00;9.43;;;;;;;9.42;33.73;97394.50;1809762;77;28538;-82
2021/03/10 11:37:37;;;;;;;15.03;7.62;;;;;;;9.53;33.79;97396.08;1793410;78;26374;-84
2021/03/10 11:40:09;;;;;;;13.15;8.23;;;;;;;9.73;33.85;97396.92;1793687;78;25340;-83